Time;durP1;ratioP1;P1;durP2;ratioP2;P2;SDS_P1;SDS_P2;PMS_P1;PMS_P2;Temp;Humidity;BMP_temperature;BMP_pressure;BME280_temperature;BME280_humidity;BME280_pressure;Samples;Min_cycle;Max_cycle;Signal;HPM_P1;HPM_P2
2023/05/22 00:02:21;;;;;;;;;;;14.10;73.90;;;;;;4136280;28;20110;-87
2023/05/22 00:04:42;;;;;;;;;;;14.20;73.80;;;;;;4146391;28;19907;-88
2023/05/22 00:07:03;;;;;;;;;;;14.20;73.70;;;;;;4146761;28;19926;-88
2023/05/22 00:09:24;;;;;;;;;;;14.20;73.70;;;;;;4130976;28;19906;-87
2023/05/22 00:11:45;;;;;;;;;;;14.20;73.70;;;;;;4137530;28;19914;-89
2023/05/22 00:14:06;;;;;;;;;;;14.20;73.70;;;;;;4115188;28;19923;-88
2023/05/22 00:16:27;;;;;;;;;;;14.20;73.60;;;;;;4124501;28;19949;-85
2023/05/22 00:18:48;;;;;;;;;;;14.10;73.50;;;;;;4123366;28;20016;-87
2023/05/22 00:21:09;;;;;;;;;;;14.10;73.50;;;;;;4127657;28;19918;-87
2023/05/22 00:23:30;;;;;;;;;;;14.10;73.50;;;;;;4107915;28;20403;-86
2023/05/22 00:25:51;;;;;;;;;;;14.10;73.50;;;;;;4125829;28;20154;-87
2023/05/22 00:28:12;;;;;;;;;;;14.10;73.40;;;;;;4119832;28;19926;-87
2023/05/22 00:30:33;;;;;;;;;;;14.20;73.40;;;;;;4106897;28;19946;-85
2023/05/22 00:32:55;;;;;;;;;;;14.10;73.20;;;;;;4123813;28;19921;-87
2023/05/22 00:35:16;;;;;;;;;;;14.00;73.10;;;;;;4123606;28;20431;-85
2023/05/22 00:37:36;;;;;;;;;;;14.10;73.30;;;;;;4104143;28;19985;-87
2023/05/22 00:39:57;;;;;;;;;;;14.10;73.30;;;;;;4109316;28;20598;-87
2023/05/22 00:42:18;;;;;;;;;;;14.10;73.30;;;;;;4111563;28;19918;-86
2023/05/22 00:44:40;;;;;;;;;;;14.00;73.10;;;;;;4105463;28;19914;-87
2023/05/22 00:47:01;;;;;;;;;;;14.00;73.20;;;;;;4112721;28;19914;-85
2023/05/22 00:49:22;;;;;;;;;;;14.00;73.00;;;;;;4121864;28;19921;-86
2023/05/22 00:51:43;;;;;;;;;;;14.00;73.20;;;;;;4119946;28;19941;-86
2023/05/22 00:54:04;;;;;;;;;;;14.00;73.20;;;;;;4106575;28;20490;-86
2023/05/22 00:56:25;;;;;;;;;;;14.00;73.30;;;;;;4109378;28;20431;-86
2023/05/22 00:58:46;;;;;;;;;;;14.10;73.30;;;;;;4105552;28;19923;-86
2023/05/22 01:01:10;;;;;;;;;;;14.10;73.30;;;;;;4116725;28;20252;-87
2023/05/22 01:03:31;;;;;;;;;;;14.00;73.30;;;;;;4119970;28;19959;-87
2023/05/22 01:05:52;;;;;;;;;;;14.00;73.20;;;;;;4106509;28;19998;-85
2023/05/22 01:08:13;;;;;;;;;;;13.90;73.10;;;;;;4134194;28;20032;-86
2023/05/22 01:10:35;;;;;;;;;;;14.00;73.10;;;;;;4127618;28;19914;-86
2023/05/22 01:12:56;;;;;;;;;;;13.90;72.90;;;;;;4101284;28;19949;-87
2023/05/22 01:15:23;;;;;;;;;;;13.90;72.80;;;;;;4122705;28;20370;-86
2023/05/22 01:17:51;;;;;;;;;;;13.90;72.70;;;;;;4104174;28;19918;-86
2023/05/22 01:20:32;;;;;;;;;;;13.90;72.80;;;;;;4117133;28;19920;-85
2023/05/22 01:23:28;;;;;;;;;;;13.90;72.70;;;;;;4118191;28;20080;-86
2023/05/22 01:25:52;;;;;;;;;;;13.90;72.80;;;;;;4042595;29;19920;-86
2023/05/22 01:28:31;;;;;;;;;;;13.90;72.70;;;;;;4044033;29;20044;-88
2023/05/22 01:31:00;;;;;;;;;;;13.90;72.60;;;;;;4058656;29;19915;-86
2023/05/22 01:33:24;;;;;;;;;;;13.80;72.60;;;;;;4053453;29;19963;-86
2023/05/22 01:35:47;;;;;;;;;;;13.80;72.90;;;;;;4043883;29;20461;-89
2023/05/22 01:38:09;;;;;;;;;;;13.90;72.90;;;;;;4058030;29;20006;-86
2023/05/22 01:40:30;;;;;;;;;;;13.80;72.80;;;;;;4057609;29;20389;-87
2023/05/22 01:42:51;;;;;;;;;;;13.80;73.00;;;;;;4060980;29;19947;-87
2023/05/22 01:45:13;;;;;;;;;;;13.70;73.00;;;;;;4055337;29;19924;-87
2023/05/22 01:47:34;;;;;;;;;;;13.80;73.10;;;;;;4056593;29;19954;-86
2023/05/22 01:49:55;;;;;;;;;;;13.80;73.00;;;;;;4047427;29;19915;-87
2023/05/22 01:52:34;;;;;;;;;;;13.70;73.10;;;;;;4045178;29;19923;-88
2023/05/22 01:55:02;;;;;;;;;;;13.70;73.10;;;;;;4054588;29;20575;-86
2023/05/22 01:57:23;;;;;;;;;;;13.70;73.10;;;;;;4053797;29;19915;-86
2023/05/22 01:59:48;;;;;;;;;;;13.80;73.20;;;;;;4058806;29;19930;-87
2023/05/22 02:02:10;;;;;;;;;;;13.70;73.10;;;;;;4079818;28;19918;-88
2023/05/22 02:04:31;;;;;;;;;;;13.70;73.30;;;;;;4103459;28;19914;-87
2023/05/22 02:06:52;;;;;;;;;;;13.70;73.30;;;;;;4104164;28;19965;-88
2023/05/22 02:09:14;;;;;;;;;;;13.70;73.20;;;;;;4123264;28;20400;-86
2023/05/22 02:11:36;;;;;;;;;;;13.70;73.40;;;;;;4110605;28;20093;-86
2023/05/22 02:13:57;;;;;;;;;;;13.70;73.30;;;;;;4124371;28;20438;-86
2023/05/22 02:16:20;;;;;;;;;;;13.70;73.30;;;;;;4106563;28;19965;-87
2023/05/22 02:18:42;;;;;;;;;;;13.70;73.30;;;;;;4123448;28;19921;-88
2023/05/22 02:21:07;;;;;;;;;;;13.60;73.30;;;;;;4126557;28;19921;-87
2023/05/22 02:23:28;;;;;;;;;;;13.60;73.50;;;;;;4104763;28;19918;-85
2023/05/22 02:25:49;;;;;;;;;;;13.60;73.70;;;;;;4124980;28;19914;-87
2023/05/22 02:28:10;;;;;;;;;;;13.60;73.60;;;;;;4123083;28;20435;-86
2023/05/22 02:30:31;;;;;;;;;;;13.60;73.80;;;;;;4125965;28;19968;-86
2023/05/22 02:32:51;;;;;;;;;;;13.70;73.80;;;;;;4107514;28;20005;-87
2023/05/22 02:35:12;;;;;;;;;;;13.60;73.90;;;;;;4125280;28;19965;-87
2023/05/22 02:37:34;;;;;;;;;;;13.60;73.90;;;;;;4124567;28;19921;-85
2023/05/22 02:39:55;;;;;;;;;;;13.50;73.80;;;;;;4122424;28;19930;-87
2023/05/22 02:42:16;;;;;;;;;;;13.60;74.00;;;;;;4122786;28;20035;-88
2023/05/22 02:44:37;;;;;;;;;;;13.50;74.00;;;;;;4106832;28;20000;-86
2023/05/22 02:46:57;;;;;;;;;;;13.50;74.10;;;;;;4109869;28;19914;-84
2023/05/22 02:49:18;;;;;;;;;;;13.40;74.60;;;;;;4121840;28;20057;-86
2023/05/22 02:51:39;;;;;;;;;;;13.40;74.70;;;;;;4124037;28;20009;-87
2023/05/22 02:54:00;;;;;;;;;;;13.30;74.60;;;;;;4109064;28;19985;-84
2023/05/22 02:56:22;;;;;;;;;;;13.30;74.60;;;;;;4124427;28;20299;-87
2023/05/22 02:58:43;;;;;;;;;;;13.30;74.90;;;;;;4111707;28;19969;-84
2023/05/22 03:01:07;;;;;;;;;;;13.30;75.00;;;;;;4108657;28;19922;-87
2023/05/22 03:03:30;;;;;;;;;;;13.30;75.20;;;;;;4122029;28;19920;-90
2023/05/22 03:05:57;;;;;;;;;;;13.40;75.20;;;;;;4110942;28;19937;-87
2023/05/22 03:08:21;;;;;;;;;;;13.30;75.30;;;;;;4109554;28;19922;-88
2023/05/22 03:10:48;;;;;;;;;;;13.40;75.50;;;;;;4105644;28;19923;-86
2023/05/22 03:13:09;;;;;;;;;;;13.20;75.20;;;;;;4121931;28;20479;-86
2023/05/22 03:15:30;;;;;;;;;;;13.20;75.40;;;;;;4123864;28;19914;-87
2023/05/22 03:17:50;;;;;;;;;;;13.20;75.60;;;;;;4119454;28;19940;-86
2023/05/22 03:20:20;;;;;;;;;;;13.30;75.80;;;;;;4117832;28;19976;-86
2023/05/22 03:22:50;;;;;;;;;;;13.30;75.70;;;;;;4103399;28;19922;-85
2023/05/22 03:25:11;;;;;;;;;;;13.20;75.80;;;;;;4121432;28;19914;-86
2023/05/22 03:27:32;;;;;;;;;;;13.20;75.80;;;;;;4122012;28;19980;-88
2023/05/22 03:29:55;;;;;;;;;;;13.20;76.00;;;;;;4107036;28;20480;-86
2023/05/22 03:32:16;;;;;;;;;;;13.30;76.00;;;;;;4116894;28;20000;-86
2023/05/22 03:34:37;;;;;;;;;;;13.20;75.90;;;;;;4118997;28;19922;-86
2023/05/22 03:36:58;;;;;;;;;;;13.20;76.10;;;;;;4122116;28;19917;-85
2023/05/22 03:39:19;;;;;;;;;;;13.20;76.20;;;;;;4110397;28;19922;-87
2023/05/22 03:41:40;;;;;;;;;;;13.20;76.20;;;;;;4122797;28;19925;-88
2023/05/22 03:44:01;;;;;;;;;;;13.20;76.30;;;;;;4124287;28;19914;-86
2023/05/22 03:46:22;;;;;;;;;;;13.10;76.20;;;;;;4127297;28;20585;-86
2023/05/22 03:48:43;;;;;;;;;;;13.10;76.50;;;;;;4123099;28;19976;-87
2023/05/22 03:51:05;;;;;;;;;;;13.20;76.60;;;;;;4121368;28;19957;-87
2023/05/22 03:53:25;;;;;;;;;;;13.20;76.50;;;;;;4112429;28;19914;-87
2023/05/22 03:55:46;;;;;;;;;;;13.10;76.40;;;;;;4111715;28;20692;-86
2023/05/22 03:58:07;;;;;;;;;;;13.10;76.70;;;;;;4122927;28;19917;-87
2023/05/22 04:00:28;;;;;;;;;;;13.20;76.90;;;;;;4110179;28;19969;-87
2023/05/22 04:02:49;;;;;;;;;;;13.20;76.90;;;;;;4104901;28;19918;-86
2023/05/22 04:05:10;;;;;;;;;;;13.10;76.80;;;;;;4125740;28;20287;-85
2023/05/22 04:07:33;;;;;;;;;;;13.10;76.70;;;;;;4123654;28;19926;-88
2023/05/22 04:09:54;;;;;;;;;;;13.10;76.80;;;;;;4109932;28;19941;-86
2023/05/22 04:12:15;;;;;;;;;;;13.00;76.70;;;;;;4105682;28;19914;-88
2023/05/22 04:14:35;;;;;;;;;;;13.10;76.90;;;;;;4110330;28;19979;-85
2023/05/22 04:16:56;;;;;;;;;;;13.10;76.90;;;;;;4109281;28;19965;-87
2023/05/22 04:19:17;;;;;;;;;;;13.10;76.90;;;;;;4127583;28;20445;-87
2023/05/22 04:21:38;;;;;;;;;;;13.20;77.00;;;;;;4107459;28;19921;-87
2023/05/22 04:24:00;;;;;;;;;;;13.20;77.00;;;;;;4127118;28;19918;-85
2023/05/22 04:26:21;;;;;;;;;;;13.30;77.00;;;;;;4109080;28;19915;-86
2023/05/22 04:28:44;;;;;;;;;;;13.20;76.70;;;;;;4121171;28;19922;-87
2023/05/22 04:31:05;;;;;;;;;;;13.30;76.70;;;;;;4124392;28;19925;-84
2023/05/22 04:33:27;;;;;;;;;;;13.20;76.60;;;;;;4132690;28;19914;-89
2023/05/22 04:35:49;;;;;;;;;;;13.30;76.70;;;;;;4110738;28;19918;-87
2023/05/22 04:38:10;;;;;;;;;;;13.30;76.70;;;;;;4125220;28;19917;-86
2023/05/22 04:40:32;;;;;;;;;;;13.30;76.70;;;;;;4108031;28;19924;-87
2023/05/22 04:42:53;;;;;;;;;;;13.40;76.60;;;;;;4123414;28;20101;-86
2023/05/22 04:45:14;;;;;;;;;;;13.30;76.30;;;;;;4123775;28;19914;-85
2023/05/22 04:47:37;;;;;;;;;;;13.40;76.50;;;;;;4108032;28;19925;-87
2023/05/22 04:50:01;;;;;;;;;;;13.40;76.40;;;;;;4110303;28;20205;-85
2023/05/22 04:52:22;;;;;;;;;;;13.40;76.00;;;;;;4122980;28;19953;-87
2023/05/22 04:54:45;;;;;;;;;;;13.40;76.10;;;;;;4125006;28;19918;-86
2023/05/22 04:57:06;;;;;;;;;;;13.40;76.00;;;;;;4121951;28;19957;-86
2023/05/22 04:59:27;;;;;;;;;;;13.50;76.20;;;;;;4120921;28;20137;-86
2023/05/22 05:01:49;;;;;;;;;;;13.50;76.20;;;;;;4124007;28;19921;-87
2023/05/22 05:04:10;;;;;;;;;;;13.50;75.90;;;;;;4117146;28;19953;-86
2023/05/22 05:06:31;;;;;;;;;;;13.60;76.00;;;;;;4105631;28;19950;-87
2023/05/22 05:08:51;;;;;;;;;;;13.60;76.00;;;;;;4108732;28;19918;-87
2023/05/22 05:11:12;;;;;;;;;;;13.60;75.70;;;;;;4118378;28;19937;-88
2023/05/22 05:13:33;;;;;;;;;;;13.80;75.80;;;;;;4116109;28;20256;-87
2023/05/22 05:15:54;;;;;;;;;;;13.80;75.60;;;;;;4142307;23;20602;-87
2023/05/22 05:18:15;;;;;;;;;;;13.80;75.40;;;;;;4104502;28;19922;-88
2023/05/22 05:20:36;;;;;;;;;;;13.90;75.20;;;;;;4121803;28;20034;-88
2023/05/22 05:22:57;;;;;;;;;;;13.90;75.00;;;;;;4111057;28;19925;-87
2023/05/22 05:25:18;;;;;;;;;;;14.00;74.40;;;;;;4100965;28;19972;-87
2023/05/22 05:27:39;;;;;;;;;;;14.10;74.50;;;;;;4109751;28;19972;-87
2023/05/22 05:30:00;;;;;;;;;;;14.10;74.80;;;;;;4105192;28;20441;-87
2023/05/22 05:32:21;;;;;;;;;;;14.20;74.90;;;;;;4107351;28;19918;-90
2023/05/22 05:34:45;;;;;;;;;;;14.40;74.80;;;;;;4107787;28;19918;-86
2023/05/22 05:37:06;;;;;;;;;;;14.40;74.40;;;;;;4106006;28;19917;-87
2023/05/22 05:39:27;;;;;;;;;;;14.50;73.90;;;;;;4105350;28;19960;-85
2023/05/22 05:41:48;;;;;;;;;;;14.50;73.50;;;;;;4092179;28;19922;-88
2023/05/22 05:44:11;;;;;;;;;;;14.70;73.60;;;;;;4107006;28;19977;-88
2023/05/22 05:46:32;;;;;;;;;;;14.70;74.10;;;;;;4109971;28;19914;-88
2023/05/22 05:49:01;;;;;;;;;;;14.80;72.10;;;;;;4111239;28;19918;-86
2023/05/22 05:51:21;;;;;;;;;;;14.90;72.10;;;;;;4108255;28;19914;-87
2023/05/22 05:53:42;;;;;;;;;;;15.00;71.80;;;;;;4110455;28;19921;-87
2023/05/22 05:56:09;;;;;;;;;;;15.10;71.10;;;;;;4112767;28;20431;-88
2023/05/22 05:58:30;;;;;;;;;;;15.10;70.90;;;;;;4099867;28;20315;-87
2023/05/22 06:00:51;;;;;;;;;;;15.10;70.40;;;;;;4108159;28;19914;-87
2023/05/22 06:03:12;;;;;;;;;;;15.20;70.30;;;;;;4112065;28;19961;-87
2023/05/22 06:05:33;;;;;;;;;;;15.30;70.20;;;;;;4113434;28;20043;-87
2023/05/22 06:07:57;;;;;;;;;;;15.30;70.00;;;;;;4113265;28;19918;-86
2023/05/22 06:10:17;;;;;;;;;;;15.40;70.40;;;;;;4113966;28;19911;-86
2023/05/22 06:12:38;;;;;;;;;;;15.40;69.90;;;;;;4111656;28;20008;-88
2023/05/22 06:14:59;;;;;;;;;;;15.50;69.90;;;;;;4109476;28;20442;-86
2023/05/22 06:17:23;;;;;;;;;;;15.40;70.20;;;;;;4101830;28;19925;-86
2023/05/22 06:19:44;;;;;;;;;;;15.50;70.10;;;;;;4110744;28;19922;-87
2023/05/22 06:22:07;;;;;;;;;;;15.70;70.20;;;;;;4111712;28;20028;-86
2023/05/22 06:24:29;;;;;;;;;;;15.70;69.60;;;;;;4106405;28;19915;-88
2023/05/22 06:26:52;;;;;;;;;;;15.70;69.50;;;;;;4096405;28;19962;-87
2023/05/22 06:29:13;;;;;;;;;;;15.80;68.90;;;;;;4092918;28;19973;-87
2023/05/22 06:31:36;;;;;;;;;;;15.80;67.80;;;;;;4096713;28;19919;-88
2023/05/22 06:33:57;;;;;;;;;;;15.80;68.10;;;;;;4112504;28;20315;-87
2023/05/22 06:36:18;;;;;;;;;;;15.90;67.80;;;;;;4109964;28;20136;-88
2023/05/22 06:38:39;;;;;;;;;;;15.90;67.70;;;;;;4103940;28;19978;-87
2023/05/22 06:41:00;;;;;;;;;;;16.00;67.80;;;;;;4107582;28;20312;-86
2023/05/22 06:43:21;;;;;;;;;;;15.90;67.50;;;;;;4098406;28;19953;-87
2023/05/22 06:45:42;;;;;;;;;;;15.90;67.10;;;;;;4111160;28;20008;-88
2023/05/22 06:48:06;;;;;;;;;;;15.90;67.00;;;;;;4112162;28;20046;-88
2023/05/22 06:50:27;;;;;;;;;;;15.90;67.10;;;;;;4096668;28;20616;-86
2023/05/22 06:52:48;;;;;;;;;;;15.90;66.60;;;;;;4093474;28;19961;-87
2023/05/22 06:55:09;;;;;;;;;;;15.90;67.00;;;;;;4111893;28;19918;-87
2023/05/22 06:57:30;;;;;;;;;;;15.90;67.10;;;;;;4109691;28;19919;-88
2023/05/22 06:59:51;;;;;;;;;;;15.90;66.70;;;;;;4094332;28;19907;-87
2023/05/22 07:02:12;;;;;;;;;;;15.80;66.80;;;;;;4105886;28;20034;-87
2023/05/22 07:04:33;;;;;;;;;;;15.90;66.90;;;;;;4113952;28;19965;-88
2023/05/22 07:06:54;;;;;;;;;;;15.90;67.00;;;;;;4116547;28;19902;-87
2023/05/22 07:09:16;;;;;;;;;;;15.90;67.20;;;;;;4100016;28;19918;-87
2023/05/22 07:11:37;;;;;;;;;;;15.90;67.50;;;;;;4107859;28;19922;-88
2023/05/22 07:13:58;;;;;;;;;;;15.90;67.40;;;;;;4101701;28;19910;-87
2023/05/22 07:16:18;;;;;;;;;;;15.80;67.70;;;;;;4111374;28;19918;-88
2023/05/22 07:18:40;;;;;;;;;;;15.90;67.80;;;;;;4108157;28;19914;-88
2023/05/22 07:21:01;;;;;;;;;;;15.90;67.70;;;;;;4093122;28;19914;-86
2023/05/22 07:23:22;;;;;;;;;;;16.00;68.00;;;;;;4107767;28;20364;-89
2023/05/22 07:25:43;;;;;;;;;;;16.00;67.30;;;;;;4097930;28;20788;-87
2023/05/22 07:28:07;;;;;;;;;;;16.00;67.60;;;;;;4105643;28;20372;-86
2023/05/22 07:30:28;;;;;;;;;;;16.00;67.30;;;;;;4093292;28;19922;-87
2023/05/22 07:32:49;;;;;;;;;;;16.10;67.60;;;;;;4108895;28;20396;-87
2023/05/22 07:35:10;;;;;;;;;;;16.10;67.50;;;;;;4106789;28;20003;-88
2023/05/22 07:37:31;;;;;;;;;;;16.10;67.10;;;;;;4108271;28;19957;-88
2023/05/22 07:39:52;;;;;;;;;;;16.20;67.20;;;;;;4112914;28;20427;-89
2023/05/22 07:42:15;;;;;;;;;;;16.30;67.40;;;;;;4107261;28;20001;-87
2023/05/22 07:44:36;;;;;;;;;;;16.40;66.90;;;;;;4109150;28;19918;-89
2023/05/22 07:46:58;;;;;;;;;;;16.40;66.60;;;;;;4091642;28;19910;-89
2023/05/22 07:49:20;;;;;;;;;;;16.40;66.60;;;;;;4108853;28;20299;-87
2023/05/22 07:51:42;;;;;;;;;;;16.60;66.90;;;;;;4104405;28;19918;-87
2023/05/22 07:54:13;;;;;;;;;;;16.60;66.20;;;;;;4120658;28;19990;-89
2023/05/22 07:56:38;;;;;;;;;;;16.70;65.90;;;;;;4108535;28;19911;-88
2023/05/22 07:58:59;;;;;;;;;;;16.80;66.00;;;;;;4105162;28;20111;-88
2023/05/22 08:01:23;;;;;;;;;;;16.90;65.10;;;;;;4106182;28;19922;-87
2023/05/22 08:03:44;;;;;;;;;;;16.90;65.30;;;;;;4106662;28;19914;-86
2023/05/22 08:06:05;;;;;;;;;;;17.00;65.20;;;;;;4098280;28;19974;-87
2023/05/22 08:08:26;;;;;;;;;;;17.10;64.20;;;;;;4108950;28;20311;-88
2023/05/22 08:10:47;;;;;;;;;;;17.20;63.20;;;;;;4096698;28;20088;-85
2023/05/22 08:13:09;;;;;;;;;;;17.30;64.00;;;;;;4108835;28;19910;-87
2023/05/22 08:15:30;;;;;;;;;;;17.30;63.50;;;;;;4099317;28;20373;-86
2023/05/22 08:17:51;;;;;;;;;;;17.30;62.80;;;;;;4108407;28;20295;-86
2023/05/22 08:20:12;;;;;;;;;;;17.40;63.20;;;;;;4107829;28;20340;-87
2023/05/22 08:22:33;;;;;;;;;;;17.40;62.30;;;;;;4107701;28;19914;-86
2023/05/22 08:24:54;;;;;;;;;;;17.40;62.40;;;;;;4106982;28;19914;-88
2023/05/22 08:27:15;;;;;;;;;;;17.50;62.70;;;;;;4105720;28;19929;-86
2023/05/22 08:29:36;;;;;;;;;;;17.50;62.90;;;;;;4097319;28;19925;-84
2023/05/22 08:31:57;;;;;;;;;;;17.50;62.40;;;;;;4110906;28;19914;-85
2023/05/22 08:34:18;;;;;;;;;;;17.50;62.80;;;;;;4090947;28;19918;-88
2023/05/22 08:36:38;;;;;;;;;;;17.50;62.90;;;;;;4111701;28;19914;-87
2023/05/22 08:39:00;;;;;;;;;;;17.50;62.90;;;;;;4105281;28;19922;-84
2023/05/22 08:41:21;;;;;;;;;;;17.60;63.20;;;;;;4105889;28;19954;-86
2023/05/22 08:43:42;;;;;;;;;;;17.60;63.30;;;;;;4106200;28;19915;-85
2023/05/22 08:46:03;;;;;;;;;;;17.70;62.80;;;;;;4107568;28;19942;-85
2023/05/22 08:48:27;;;;;;;;;;;17.70;62.70;;;;;;4109095;28;19937;-86
2023/05/22 08:50:55;;;;;;;;;;;17.70;62.40;;;;;;4110019;28;20276;-87
2023/05/22 08:53:17;;;;;;;;;;;17.80;62.10;;;;;;4097374;28;20372;-87
2023/05/22 08:55:38;;;;;;;;;;;17.90;61.50;;;;;;4105720;28;19942;-87
2023/05/22 08:58:00;;;;;;;;;;;17.80;61.40;;;;;;4090232;28;19919;-85
2023/05/22 09:00:21;;;;;;;;;;;17.90;61.10;;;;;;4106583;28;19922;-87
2023/05/22 09:02:42;;;;;;;;;;;17.90;62.20;;;;;;4108817;28;19910;-86
2023/05/22 09:05:05;;;;;;;;;;;18.00;61.00;;;;;;4109200;28;19914;-86
2023/05/22 09:07:29;;;;;;;;;;;18.00;59.80;;;;;;4108122;28;19925;-86
2023/05/22 09:09:49;;;;;;;;;;;18.10;60.10;;;;;;4093072;28;20304;-84
2023/05/22 09:12:10;;;;;;;;;;;18.20;59.90;;;;;;4110248;28;19925;-85
2023/05/22 09:14:37;;;;;;;;;;;18.20;59.60;;;;;;4104424;28;19921;-86
2023/05/22 09:16:57;;;;;;;;;;;18.20;59.20;;;;;;4110332;28;20016;-85
2023/05/22 09:19:18;;;;;;;;;;;18.30;58.40;;;;;;4104555;28;20392;-85
2023/05/22 09:21:40;;;;;;;;;;;18.40;60.60;;;;;;4112722;28;20002;-86
2023/05/22 09:24:01;;;;;;;;;;;18.50;59.80;;;;;;4114869;28;19921;-85
2023/05/22 09:26:25;;;;;;;;;;;18.60;59.80;;;;;;4113162;28;19915;-86
2023/05/22 09:28:46;;;;;;;;;;;18.70;59.70;;;;;;4098082;28;20479;-85
2023/05/22 09:31:07;;;;;;;;;;;18.70;57.30;;;;;;4101916;28;19940;-85
2023/05/22 09:33:28;;;;;;;;;;;18.90;58.40;;;;;;4110516;28;20567;-84
2023/05/22 09:35:51;;;;;;;;;;;19.00;59.00;;;;;;4113315;28;20061;-84
2023/05/22 09:38:12;;;;;;;;;;;19.00;58.40;;;;;;4096206;28;19955;-86
2023/05/22 09:40:33;;;;;;;;;;;19.10;57.90;;;;;;4102340;28;20407;-84
2023/05/22 09:42:54;;;;;;;;;;;19.20;57.50;;;;;;4093871;28;19973;-87
2023/05/22 09:45:18;;;;;;;;;;;19.30;58.00;;;;;;4110052;28;19964;-85
2023/05/22 09:47:39;;;;;;;;;;;19.40;57.10;;;;;;4105499;28;19910;-86
2023/05/22 09:50:03;;;;;;;;;;;19.40;57.10;;;;;;4112651;28;19910;-84
2023/05/22 09:52:25;;;;;;;;;;;19.50;57.00;;;;;;4109150;28;20612;-87
2023/05/22 09:54:53;;;;;;;;;;;19.70;56.30;;;;;;4120431;28;19914;-87
2023/05/22 09:57:17;;;;;;;;;;;19.70;55.50;;;;;;4106191;28;20022;-86
2023/05/22 09:59:39;;;;;;;;;;;19.70;53.40;;;;;;4110463;28;19914;-85
2023/05/22 10:02:00;;;;;;;;;;;19.80;54.50;;;;;;4108710;28;19993;-85
2023/05/22 10:04:21;;;;;;;;;;;19.80;54.10;;;;;;4093597;28;19923;-87
2023/05/22 10:06:49;;;;;;;;;;;19.90;54.90;;;;;;4110465;28;20479;-88
2023/05/22 10:09:13;;;;;;;;;;;20.00;54.60;;;;;;4101232;28;20011;-86
2023/05/22 10:11:34;;;;;;;;;;;20.00;52.90;;;;;;4104609;28;19981;-86
2023/05/22 10:13:57;;;;;;;;;;;20.20;53.20;;;;;;4106374;28;19918;-86
2023/05/22 10:16:18;;;;;;;;;;;20.20;54.40;;;;;;4105629;28;19918;-85
2023/05/22 10:18:39;;;;;;;;;;;20.20;53.50;;;;;;4108054;28;19918;-85
2023/05/22 10:21:01;;;;;;;;;;;20.30;54.00;;;;;;4108621;28;20367;-84
2023/05/22 10:23:27;;;;;;;;;;;20.40;54.10;;;;;;4083673;28;19935;-86
2023/05/22 10:25:48;;;;;;;;;;;20.40;52.30;;;;;;4105467;28;19918;-86
2023/05/22 10:28:09;;;;;;;;;;;20.40;51.20;;;;;;4095074;28;19918;-87
2023/05/22 10:30:33;;;;;;;;;;;20.40;50.80;;;;;;4109157;28;19942;-85
2023/05/22 10:33:03;;;;;;;;;;;20.40;51.10;;;;;;4107813;28;19914;-87
2023/05/22 10:35:28;;;;;;;;;;;20.50;51.50;;;;;;4111256;28;19937;-84
2023/05/22 10:37:50;;;;;;;;;;;20.60;52.10;;;;;;4108235;28;19969;-84
2023/05/22 10:40:13;;;;;;;;;;;20.70;52.40;;;;;;4110395;28;19988;-86
2023/05/22 10:42:36;;;;;;;;;;;20.80;51.60;;;;;;4106062;28;19918;-86
2023/05/22 10:44:57;;;;;;;;;;;20.80;52.40;;;;;;4097146;28;19911;-84
2023/05/22 10:47:18;;;;;;;;;;;20.90;52.20;;;;;;4110446;28;19954;-84
2023/05/22 10:49:42;;;;;;;;;;;21.00;51.80;;;;;;4094948;28;19922;-85
2023/05/22 10:52:03;;;;;;;;;;;21.00;52.10;;;;;;4109748;28;20192;-85
2023/05/22 10:54:41;;;;;;;;;;;21.10;50.00;;;;;;4106958;28;19914;-84
2023/05/22 10:57:17;;;;;;;;;;;21.10;49.30;;;;;;4109496;28;19914;-86
2023/05/22 10:59:38;;;;;;;;;;;21.20;49.40;;;;;;4101955;28;20630;-85
2023/05/22 11:01:59;;;;;;;;;;;21.10;48.60;;;;;;4107237;28;20333;-84
2023/05/22 11:04:24;;;;;;;;;;;21.00;48.70;;;;;;4091649;28;19925;-85
2023/05/22 11:07:04;;;;;;;;;;;21.00;49.00;;;;;;4093125;28;19942;-85
2023/05/22 11:09:32;;;;;;;;;;;21.00;49.20;;;;;;4120449;28;20408;-86
2023/05/22 11:12:13;;;;;;;;;;;20.80;50.10;;;;;;4107675;28;19913;-84
2023/05/22 11:14:35;;;;;;;;;;;20.60;49.10;;;;;;4112084;28;20292;-86
2023/05/22 11:17:00;;;;;;;;;;;20.60;50.60;;;;;;4106630;28;19989;-87
2023/05/22 11:19:23;;;;;;;;;;;20.60;50.60;;;;;;4109283;28;19910;-86
2023/05/22 11:21:45;;;;;;;;;;;20.50;50.30;;;;;;4108824;28;19907;-87
2023/05/22 11:24:11;;;;;;;;;;;20.40;51.10;;;;;;4102155;28;19946;-87
2023/05/22 11:26:32;;;;;;;;;;;20.40;51.60;;;;;;4108842;28;19994;-85
2023/05/22 11:28:53;;;;;;;;;;;20.40;51.60;;;;;;4111445;28;19914;-87
2023/05/22 11:31:14;;;;;;;;;;;20.30;51.70;;;;;;4109423;28;20009;-86
2023/05/22 11:33:34;;;;;;;;;;;20.40;52.00;;;;;;4098467;28;19918;-86
2023/05/22 11:35:55;;;;;;;;;;;20.40;51.60;;;;;;4108306;28;19921;-86
2023/05/22 11:41:16;;;;;;;;;;;20.40;51.10;;;;;;4046464;29;19919;-85
2023/05/22 11:44:03;;;;;;;;;;;20.40;51.30;;;;;;4046986;29;20577;-87
2023/05/22 11:46:26;;;;;;;;;;;20.50;51.80;;;;;;4045133;29;19916;-87
2023/05/22 11:48:58;;;;;;;;;;;20.50;52.20;;;;;;4035341;29;20298;-86
2023/05/22 11:51:20;;;;;;;;;;;20.50;52.30;;;;;;4047704;29;20302;-85
2023/05/22 11:53:40;;;;;;;;;;;20.60;52.00;;;;;;4048558;29;19974;-86
2023/05/22 11:56:16;;;;;;;;;;;20.40;51.20;;;;;;4034142;29;19927;-85
2023/05/22 11:58:37;;;;;;;;;;;20.60;51.90;;;;;;4045823;29;20026;-86
2023/05/22 12:01:01;;;;;;;;;;;20.60;50.40;;;;;;4049142;29;19920;-85
2023/05/22 12:03:22;;;;;;;;;;;20.40;48.40;;;;;;4056520;29;19936;-87
2023/05/22 12:05:45;;;;;;;;;;;20.50;50.80;;;;;;4067374;29;19915;-87
2023/05/22 12:08:39;;;;;;;;;;;20.50;50.50;;;;;;4057967;29;19958;-86
2023/05/22 12:11:03;;;;;;;;;;;20.50;50.90;;;;;;4055752;29;19943;-89
2023/05/22 12:13:28;;;;;;;;;;;20.50;50.60;;;;;;4059569;29;19924;-86
2023/05/22 12:15:49;;;;;;;;;;;20.60;51.30;;;;;;4035133;29;19937;-86
2023/05/22 12:18:10;;;;;;;;;;;20.60;51.60;;;;;;4075809;28;19926;-86
2023/05/22 12:20:31;;;;;;;;;;;20.60;52.00;;;;;;4110709;28;19914;-85
2023/05/22 12:22:58;;;;;;;;;;;20.60;52.10;;;;;;4105817;28;19929;-87
2023/05/22 12:25:45;;;;;;;;;;;20.60;51.40;;;;;;4098049;28;19922;-85
2023/05/22 12:28:06;;;;;;;;;;;20.60;51.30;;;;;;4060885;29;19923;-86
2023/05/22 12:30:37;;;;;;;;;;;20.60;51.90;;;;;;4060321;29;20130;-86
2023/05/22 12:32:58;;;;;;;;;;;20.60;51.80;;;;;;4061678;29;20826;-85
2023/05/22 12:35:19;;;;;;;;;;;20.60;51.90;;;;;;4060181;29;19919;-85
2023/05/22 12:37:46;;;;;;;;;;;20.50;52.90;;;;;;4048663;29;19931;-86
2023/05/22 12:40:10;;;;;;;;;;;20.40;53.20;;;;;;4063215;29;20538;-86
2023/05/22 12:42:31;;;;;;;;;;;20.40;53.30;;;;;;4061662;29;20472;-85
2023/05/22 12:44:52;;;;;;;;;;;20.30;53.20;;;;;;4060963;29;19923;-85
2023/05/22 12:47:13;;;;;;;;;;;20.40;53.10;;;;;;4060560;29;19919;-86
2023/05/22 12:49:34;;;;;;;;;;;20.30;52.60;;;;;;4050536;29;19959;-85
2023/05/22 12:51:55;;;;;;;;;;;20.30;51.60;;;;;;4052192;29;19970;-87
2023/05/22 12:54:16;;;;;;;;;;;20.30;51.60;;;;;;4050568;29;19923;-86
2023/05/22 12:56:37;;;;;;;;;;;20.30;51.30;;;;;;4062891;29;19954;-85
2023/05/22 12:58:58;;;;;;;;;;;20.30;51.40;;;;;;4060966;29;20057;-86
2023/05/22 13:01:20;;;;;;;;;;;20.30;51.70;;;;;;4060920;29;20274;-86
2023/05/22 13:03:41;;;;;;;;;;;20.20;51.70;;;;;;4059607;29;20441;-86
2023/05/22 13:06:05;;;;;;;;;;;20.20;51.40;;;;;;4108454;28;19942;-84
2023/05/22 13:08:26;;;;;;;;;;;20.20;51.00;;;;;;4104628;28;19918;-86
2023/05/22 13:11:05;;;;;;;;;;;20.20;51.70;;;;;;4094571;28;19985;-86
2023/05/22 13:14:00;;;;;;;;;;;20.20;51.60;;;;;;4106326;28;20368;-85
2023/05/22 13:16:21;;;;;;;;;;;20.10;50.00;;;;;;4096937;28;20005;-86
2023/05/22 13:18:41;;;;;;;;;;;20.20;50.60;;;;;;4089091;28;19915;-84
2023/05/22 13:21:02;;;;;;;;;;;20.10;50.10;;;;;;4101011;28;20234;-86
2023/05/22 13:23:23;;;;;;;;;;;20.10;50.50;;;;;;4104553;28;19926;-86
2023/05/22 13:25:44;;;;;;;;;;;20.10;51.20;;;;;;4094396;28;19910;-85
2023/05/22 13:28:05;;;;;;;;;;;20.00;52.80;;;;;;4094859;28;20017;-87
2023/05/22 13:30:27;;;;;;;;;;;20.10;53.70;;;;;;4103011;28;20276;-85
2023/05/22 13:32:48;;;;;;;;;;;20.00;53.50;;;;;;4108077;28;19930;-86
2023/05/22 13:35:12;;;;;;;;;;;20.00;53.80;;;;;;4104872;28;19918;-85
2023/05/22 13:37:33;;;;;;;;;;;20.00;53.50;;;;;;4100571;28;19910;-86
2023/05/22 13:39:54;;;;;;;;;;;19.90;53.90;;;;;;4091875;28;19966;-87
2023/05/22 13:42:15;;;;;;;;;;;20.00;54.50;;;;;;4097742;28;19922;-85
2023/05/22 13:44:35;;;;;;;;;;;20.00;53.70;;;;;;4093958;28;20423;-86
2023/05/22 13:46:56;;;;;;;;;;;20.00;54.30;;;;;;4105029;28;19925;-86
2023/05/22 13:49:17;;;;;;;;;;;20.10;53.80;;;;;;4096608;28;19961;-87
2023/05/22 13:51:38;;;;;;;;;;;20.00;53.70;;;;;;4108597;28;20363;-87
2023/05/22 13:53:59;;;;;;;;;;;20.20;53.80;;;;;;4099697;28;19918;-86